地図

経路データ

SID SEASON NUMBER BASIN SUBBASIN NAME ISO_TIME NATURE LAT LON WMO_WIND WMO_PRES WMO_AGENCY TRACK_TYPE DIST2LAND LANDFALL IFLAG USA_AGENCY USA_ATCF_ID USA_LAT USA_LON USA_RECORD USA_STATUS USA_WIND USA_PRES USA_SSHS USA_R34_NE USA_R34_SE USA_R34_SW USA_R34_NW USA_R50_NE USA_R50_SE USA_R50_SW USA_R50_NW USA_R64_NE USA_R64_SE USA_R64_SW USA_R64_NW USA_POCI USA_ROCI USA_RMW USA_EYE TOKYO_LAT TOKYO_LON TOKYO_GRADE TOKYO_WIND TOKYO_PRES TOKYO_R50_DIR TOKYO_R50_LONG TOKYO_R50_SHORT TOKYO_R30_DIR TOKYO_R30_LONG TOKYO_R30_SHORT TOKYO_LAND CMA_LAT CMA_LON CMA_CAT CMA_WIND CMA_PRES HKO_LAT HKO_LON HKO_CAT HKO_WIND HKO_PRES NEWDELHI_LAT NEWDELHI_LON NEWDELHI_GRADE NEWDELHI_WIND NEWDELHI_PRES NEWDELHI_CI NEWDELHI_DP NEWDELHI_POCI REUNION_LAT REUNION_LON REUNION_TYPE REUNION_WIND REUNION_PRES REUNION_TNUM REUNION_CI REUNION_RMW REUNION_R34_NE REUNION_R34_SE REUNION_R34_SW REUNION_R34_NW REUNION_R50_NE REUNION_R50_SE REUNION_R50_SW REUNION_R50_NW REUNION_R64_NE REUNION_R64_SE REUNION_R64_SW REUNION_R64_NW BOM_LAT BOM_LON BOM_TYPE BOM_WIND BOM_PRES BOM_TNUM BOM_CI BOM_RMW BOM_R34_NE BOM_R34_SE BOM_R34_SW BOM_R34_NW BOM_R50_NE BOM_R50_SE BOM_R50_SW BOM_R50_NW BOM_R64_NE BOM_R64_SE BOM_R64_SW BOM_R64_NW BOM_ROCI BOM_POCI BOM_EYE BOM_POS_METHOD BOM_PRES_METHOD NADI_LAT NADI_LON NADI_CAT NADI_WIND NADI_PRES WELLINGTON_LAT WELLINGTON_LON WELLINGTON_WIND WELLINGTON_PRES DS824_LAT DS824_LON DS824_STAGE DS824_WIND DS824_PRES TD9636_LAT TD9636_LON TD9636_STAGE TD9636_WIND TD9636_PRES TD9635_LAT TD9635_LON TD9635_WIND TD9635_PRES TD9635_ROCI NEUMANN_LAT NEUMANN_LON NEUMANN_CLASS NEUMANN_WIND NEUMANN_PRES MLC_LAT MLC_LON MLC_CLASS MLC_WIND MLC_PRES USA_GUST BOM_GUST BOM_GUST_PER REUNION_GUST REUNION_GUST_PER USA_SEAHGT USA_SEARAD_NE USA_SEARAD_SE USA_SEARAD_SW USA_SEARAD_NW STORM_SPEED STORM_DIR
1919317N14085 1919 48 NI BB NOT_NAMED 1919-11-13 00:00:00 TS 14.1000 85.4000 main 434 420 _________O____ -1 14.1000 85.4000 TC 34 5 352
1919317N14085 1919 48 NI BB NOT_NAMED 1919-11-13 03:00:00 TS 14.3383 85.3633 main 420 391 _________PO___ -1 14.4575 85.3450 TC 36 14.1000 85.4000 2 6 352
1919317N14085 1919 48 NI BB NOT_NAMED 1919-11-13 06:00:00 TS 14.6569 85.3182 main 385 367 _________OP___ -1 14.8000 85.3000 TC 39 14.4422 85.3456 2 6 354
1919317N14085 1919 48 NI BB NOT_NAMED 1919-11-13 09:00:00 TS 14.9704 85.2884 main 367 349 _________PP___ -1 15.1150 85.2775 TC 42 14.7775 85.3028 2 6 0
1919317N14085 1919 48 NI BB NOT_NAMED 1919-11-13 12:00:00 TS 15.2495 85.2918 main 349 324 _________OP___ -1 15.4000 85.3000 TC 45 15.0991 85.2836 2 6 5
1919317N14085 1919 48 NI BB NOT_NAMED 1919-11-13 15:00:00 TS 15.5288 85.3425 main 324 308 _________PO___ -1 15.6575 85.3850 TC 45 15.4000 85.3000 3 6 14
1919317N14085 1919 48 NI BB NOT_NAMED 1919-11-13 18:00:00 TS 15.7878 85.4299 main 308 297 _________OP___ -1 15.9000 85.5000 TC 45 15.6756 85.3599 3 5 19
1919317N14085 1919 48 NI BB NOT_NAMED 1919-11-13 21:00:00 TS 16.0400 85.5275 main 297 274 _________PP___ -1 16.1500 85.6000 TC 45 15.9300 85.4549 3 5 22
1919317N14085 1919 48 NI BB NOT_NAMED 1919-11-14 00:00:00 TS 16.2847 85.6362 main 274 263 _________OP___ -1 16.4000 85.7000 TC 45 16.1694 85.5724 3 5 23
1919317N14085 1919 48 NI BB NOT_NAMED 1919-11-14 03:00:00 TS 16.5287 85.7463 main 263 254 _________PO___ -1 16.6575 85.7925 TC 45 16.4000 85.7000 3 5 24
1919317N14085 1919 48 NI BB NOT_NAMED 1919-11-14 06:00:00 TS 16.7681 85.8569 main 254 246 _________OP___ -1 16.9000 85.9000 TC 45 16.6362 85.8138 3 5 27
1919317N14085 1919 48 NI BB NOT_NAMED 1919-11-14 09:00:00 TS 16.9862 85.9888 main 246 238 _________PP___ -1 17.1075 86.0425 TC 45 16.8650 85.9351 3 5 32
1919317N14085 1919 48 NI BB NOT_NAMED 1919-11-14 12:00:00 TS 17.1931 86.1319 main 238 230 _________OP___ -1 17.3000 86.2000 TC 45 17.0862 86.0638 3 5 33
1919317N14085 1919 48 NI BB NOT_NAMED 1919-11-14 15:00:00 TS 17.4000 86.2750 main 238 231 _________PO___ -1 17.5000 86.3500 TC 45 17.3000 86.2000 3 5 33
1919317N14085 1919 48 NI BB NOT_NAMED 1919-11-14 18:00:00 TS 17.5933 86.4034 main 232 226 _________OP___ -1 17.7000 86.5000 TC 45 17.4866 86.3069 3 4 32
1919317N14085 1919 48 NI BB NOT_NAMED 1919-11-14 21:00:00 TS 17.7735 86.5231 main 229 221 _________PP___ -1 17.8774 86.6203 TC 45 17.6695 86.4260 3 5 35
1919317N14085 1919 48 NI BB NOT_NAMED 1919-11-15 00:00:00 TS 17.9839 86.6911 main 221 197 _________OP___ -1 18.1000 86.8000 TC 45 17.8677 86.5821 3 6 40
1919317N14085 1919 48 NI BB NOT_NAMED 1919-11-15 03:00:00 TS 18.2675 86.9562 main 200 182 _________PO___ -1 18.4350 87.1124 TC 45 18.1000 86.8000 3 9 44
1919317N14085 1919 48 NI BB NOT_NAMED 1919-11-15 06:00:00 TS 18.5988 87.3089 main 182 175 _________OP___ -1 18.8000 87.5000 TC 45 18.3976 87.1179 3 10 47
1919317N14085 1919 48 NI BB NOT_NAMED 1919-11-15 09:00:00 TS 18.9178 87.7021 main 183 176 _________PP___ -1 19.1075 87.9076 TC 45 18.7280 87.4967 3 10 50
1919317N14085 1919 48 NI BB NOT_NAMED 1919-11-15 12:00:00 TS 19.2347 88.1012 main 191 184 _________OP___ -1 19.4000 88.3000 TC 45 19.0694 87.9023 3 10 48
1919317N14085 1919 48 NI BB NOT_NAMED 1919-11-15 15:00:00 TS 19.5537 88.4538 main 199 199 _________PO___ -1 19.7073 88.6077 TC 41 19.4000 88.3000 3 9 46
1919317N14085 1919 48 NI BB NOT_NAMED 1919-11-15 18:00:00 TS 19.8304 88.7642 main 201 167 _________OP___ -1 20.0000 88.9000 TC 37 19.7033 88.6623 3 8 48
1919317N14085 1919 48 NI BB NOT_NAMED 1919-11-15 21:00:00 TS 20.0935 89.0894 main 167 146 _________PP___ -1 20.2602 89.2347 TC 33 19.9824 88.9925 3 8 50
1919317N14085 1919 48 NI BB NOT_NAMED 1919-11-16 00:00:00 TS 20.3302 89.4009 main 148 133 _________OP___ -1 20.5000 89.6000 TC 30 20.2453 89.3013 3 6 50
1919317N14085 1919 48 NI BB NOT_NAMED 1919-11-16 03:00:00 NR 20.5000 89.6000 main 133 __________O___ -1 TC 20.5000 89.6000 1 5 47

IBTrACS Databaseについて

本データベースは、米国NOAAが公開する1842年以降の世界の熱帯低気圧のベストトラックデータアーカイブInternational Best Track Archive for Climate Stewardship (IBTrACS)を、ウェブで閲覧しやすい形式に変換したものです。

最終更新日:2021-10-21